sensor_id;sensor_type;location;lat;lon;timestamp;P1;durP1;ratioP1;P2;durP2;ratioP2
14203;SDS011;7185;51.854;6.622;2022-11-20T00:01:27;25.60;;;12.63;;
14203;SDS011;7185;51.854;6.622;2022-11-20T00:04:16;30.42;;;13.50;;
14203;SDS011;7185;51.854;6.622;2022-11-20T00:06:47;27.65;;;12.90;;
14203;SDS011;7185;51.854;6.622;2022-11-20T00:09:19;27.40;;;13.50;;
14203;SDS011;7185;51.854;6.622;2022-11-20T00:11:53;32.67;;;15.65;;
14203;SDS011;7185;51.854;6.622;2022-11-20T00:14:26;30.42;;;15.32;;
14203;SDS011;7185;51.854;6.622;2022-11-20T00:16:58;30.58;;;14.00;;
14203;SDS011;7185;51.854;6.622;2022-11-20T00:19:32;34.42;;;15.73;;
14203;SDS011;7185;51.854;6.622;2022-11-20T00:22:10;28.10;;;14.27;;
14203;SDS011;7185;51.854;6.622;2022-11-20T00:24:44;26.98;;;12.60;;
14203;SDS011;7185;51.854;6.622;2022-11-20T00:27:15;22.55;;;11.50;;
14203;SDS011;7185;51.854;6.622;2022-11-20T00:29:48;25.00;;;12.20;;
14203;SDS011;7185;51.854;6.622;2022-11-20T00:32:20;27.73;;;13.27;;
14203;SDS011;7185;51.854;6.622;2022-11-20T00:34:52;26.58;;;11.95;;
14203;SDS011;7185;51.854;6.622;2022-11-20T00:37:24;21.42;;;10.95;;
14203;SDS011;7185;51.854;6.622;2022-11-20T00:40:15;25.05;;;12.38;;
14203;SDS011;7185;51.854;6.622;2022-11-20T00:42:51;25.08;;;12.50;;
14203;SDS011;7185;51.854;6.622;2022-11-20T00:45:27;25.27;;;12.82;;
14203;SDS011;7185;51.854;6.622;2022-11-20T00:47:58;28.98;;;13.18;;
14203;SDS011;7185;51.854;6.622;2022-11-20T00:50:30;39.33;;;14.40;;
14203;SDS011;7185;51.854;6.622;2022-11-20T00:53:03;25.73;;;12.45;;
14203;SDS011;7185;51.854;6.622;2022-11-20T00:55:40;23.63;;;11.98;;
14203;SDS011;7185;51.854;6.622;2022-11-20T00:58:32;25.58;;;12.18;;
14203;SDS011;7185;51.854;6.622;2022-11-20T01:01:23;25.00;;;11.90;;
14203;SDS011;7185;51.854;6.622;2022-11-20T01:04:10;27.38;;;12.55;;
14203;SDS011;7185;51.854;6.622;2022-11-20T01:06:55;26.40;;;13.18;;
14203;SDS011;7185;51.854;6.622;2022-11-20T01:09:36;27.17;;;13.10;;
14203;SDS011;7185;51.854;6.622;2022-11-20T01:12:22;29.30;;;14.48;;
14203;SDS011;7185;51.854;6.622;2022-11-20T01:14:55;27.90;;;12.32;;
14203;SDS011;7185;51.854;6.622;2022-11-20T01:20:38;27.77;;;14.38;;
14203;SDS011;7185;51.854;6.622;2022-11-20T01:23:12;31.92;;;14.02;;
14203;SDS011;7185;51.854;6.622;2022-11-20T01:25:43;28.52;;;14.38;;
14203;SDS011;7185;51.854;6.622;2022-11-20T01:28:21;31.70;;;15.07;;
14203;SDS011;7185;51.854;6.622;2022-11-20T01:30:53;28.17;;;14.13;;
14203;SDS011;7185;51.854;6.622;2022-11-20T01:33:32;32.72;;;14.57;;
14203;SDS011;7185;51.854;6.622;2022-11-20T01:36:11;27.02;;;13.30;;
14203;SDS011;7185;51.854;6.622;2022-11-20T01:38:58;30.70;;;14.40;;
14203;SDS011;7185;51.854;6.622;2022-11-20T01:41:31;28.30;;;14.77;;
14203;SDS011;7185;51.854;6.622;2022-11-20T01:44:50;31.33;;;13.43;;
14203;SDS011;7185;51.854;6.622;2022-11-20T01:47:25;26.52;;;12.73;;
14203;SDS011;7185;51.854;6.622;2022-11-20T01:50:10;33.42;;;14.00;;
14203;SDS011;7185;51.854;6.622;2022-11-20T01:52:45;27.95;;;12.80;;
14203;SDS011;7185;51.854;6.622;2022-11-20T01:55:36;26.42;;;12.75;;
14203;SDS011;7185;51.854;6.622;2022-11-20T01:58:11;24.33;;;12.38;;
14203;SDS011;7185;51.854;6.622;2022-11-20T02:00:51;23.85;;;11.98;;
14203;SDS011;7185;51.854;6.622;2022-11-20T02:06:28;25.42;;;13.52;;
14203;SDS011;7185;51.854;6.622;2022-11-20T02:09:09;24.88;;;13.02;;
14203;SDS011;7185;51.854;6.622;2022-11-20T02:11:43;25.92;;;12.43;;
14203;SDS011;7185;51.854;6.622;2022-11-20T02:14:18;25.85;;;12.57;;
14203;SDS011;7185;51.854;6.622;2022-11-20T02:16:49;26.42;;;11.93;;
14203;SDS011;7185;51.854;6.622;2022-11-20T02:19:23;26.65;;;12.10;;
14203;SDS011;7185;51.854;6.622;2022-11-20T02:22:05;29.95;;;13.50;;
14203;SDS011;7185;51.854;6.622;2022-11-20T02:24:43;26.60;;;12.80;;
14203;SDS011;7185;51.854;6.622;2022-11-20T02:27:18;30.23;;;14.02;;
14203;SDS011;7185;51.854;6.622;2022-11-20T02:29:50;29.23;;;13.57;;
14203;SDS011;7185;51.854;6.622;2022-11-20T02:32:24;29.70;;;13.43;;
14203;SDS011;7185;51.854;6.622;2022-11-20T02:35:05;23.58;;;12.38;;
14203;SDS011;7185;51.854;6.622;2022-11-20T02:37:38;26.52;;;13.05;;
14203;SDS011;7185;51.854;6.622;2022-11-20T02:40:12;25.40;;;12.68;;
14203;SDS011;7185;51.854;6.622;2022-11-20T02:42:43;28.48;;;12.73;;
14203;SDS011;7185;51.854;6.622;2022-11-20T02:45:15;28.05;;;13.25;;
14203;SDS011;7185;51.854;6.622;2022-11-20T02:47:46;25.48;;;12.63;;
14203;SDS011;7185;51.854;6.622;2022-11-20T02:50:17;32.40;;;14.50;;
14203;SDS011;7185;51.854;6.622;2022-11-20T02:52:49;28.17;;;13.52;;
14203;SDS011;7185;51.854;6.622;2022-11-20T02:55:22;27.40;;;13.48;;
14203;SDS011;7185;51.854;6.622;2022-11-20T02:57:53;27.92;;;12.95;;
14203;SDS011;7185;51.854;6.622;2022-11-20T03:00:24;23.40;;;11.93;;
14203;SDS011;7185;51.854;6.622;2022-11-20T03:02:56;27.92;;;13.27;;
14203;SDS011;7185;51.854;6.622;2022-11-20T03:05:27;24.38;;;11.85;;
14203;SDS011;7185;51.854;6.622;2022-11-20T03:07:58;28.20;;;13.95;;
14203;SDS011;7185;51.854;6.622;2022-11-20T03:10:31;26.20;;;12.68;;
14203;SDS011;7185;51.854;6.622;2022-11-20T03:13:02;25.77;;;13.02;;
14203;SDS011;7185;51.854;6.622;2022-11-20T03:15:35;27.75;;;12.63;;
14203;SDS011;7185;51.854;6.622;2022-11-20T03:18:06;25.60;;;11.82;;
14203;SDS011;7185;51.854;6.622;2022-11-20T03:20:38;26.45;;;13.43;;
14203;SDS011;7185;51.854;6.622;2022-11-20T03:23:09;26.13;;;12.77;;
14203;SDS011;7185;51.854;6.622;2022-11-20T03:25:42;26.90;;;13.35;;
14203;SDS011;7185;51.854;6.622;2022-11-20T03:28:13;27.25;;;12.93;;
14203;SDS011;7185;51.854;6.622;2022-11-20T03:30:44;26.10;;;12.10;;
14203;SDS011;7185;51.854;6.622;2022-11-20T03:33:16;32.15;;;13.05;;
14203;SDS011;7185;51.854;6.622;2022-11-20T03:35:47;29.20;;;12.95;;
14203;SDS011;7185;51.854;6.622;2022-11-20T03:38:18;25.42;;;12.00;;
14203;SDS011;7185;51.854;6.622;2022-11-20T03:40:57;26.77;;;13.10;;
14203;SDS011;7185;51.854;6.622;2022-11-20T03:43:28;22.55;;;11.98;;
14203;SDS011;7185;51.854;6.622;2022-11-20T03:46:00;26.17;;;12.50;;
14203;SDS011;7185;51.854;6.622;2022-11-20T03:48:31;24.60;;;13.05;;
14203;SDS011;7185;51.854;6.622;2022-11-20T03:51:06;29.85;;;13.73;;
14203;SDS011;7185;51.854;6.622;2022-11-20T03:53:38;24.55;;;12.63;;
14203;SDS011;7185;51.854;6.622;2022-11-20T03:56:11;27.30;;;12.32;;
14203;SDS011;7185;51.854;6.622;2022-11-20T03:58:42;26.83;;;12.05;;
14203;SDS011;7185;51.854;6.622;2022-11-20T04:01:14;27.95;;;13.50;;
14203;SDS011;7185;51.854;6.622;2022-11-20T04:03:46;26.25;;;13.05;;
14203;SDS011;7185;51.854;6.622;2022-11-20T04:06:18;28.38;;;12.82;;
14203;SDS011;7185;51.854;6.622;2022-11-20T04:08:50;30.25;;;14.10;;
14203;SDS011;7185;51.854;6.622;2022-11-20T04:11:24;32.72;;;14.48;;
14203;SDS011;7185;51.854;6.622;2022-11-20T04:13:56;28.48;;;13.20;;
14203;SDS011;7185;51.854;6.622;2022-11-20T04:16:28;28.52;;;13.23;;
14203;SDS011;7185;51.854;6.622;2022-11-20T04:19:00;27.60;;;13.65;;
14203;SDS011;7185;51.854;6.622;2022-11-20T04:21:32;28.33;;;13.05;;
14203;SDS011;7185;51.854;6.622;2022-11-20T04:24:04;30.80;;;13.25;;
14203;SDS011;7185;51.854;6.622;2022-11-20T04:26:36;26.05;;;12.73;;
14203;SDS011;7185;51.854;6.622;2022-11-20T04:29:10;25.75;;;13.32;;
14203;SDS011;7185;51.854;6.622;2022-11-20T04:31:41;26.83;;;14.15;;
14203;SDS011;7185;51.854;6.622;2022-11-20T04:34:13;28.60;;;12.75;;
14203;SDS011;7185;51.854;6.622;2022-11-20T04:36:44;29.58;;;13.80;;
14203;SDS011;7185;51.854;6.622;2022-11-20T04:39:16;24.00;;;12.80;;
14203;SDS011;7185;51.854;6.622;2022-11-20T04:41:48;30.65;;;14.65;;
14203;SDS011;7185;51.854;6.622;2022-11-20T04:44:40;29.35;;;13.50;;
14203;SDS011;7185;51.854;6.622;2022-11-20T04:47:11;25.50;;;12.93;;
14203;SDS011;7185;51.854;6.622;2022-11-20T04:49:43;30.85;;;13.60;;
14203;SDS011;7185;51.854;6.622;2022-11-20T04:52:14;27.92;;;13.15;;
14203;SDS011;7185;51.854;6.622;2022-11-20T04:54:45;30.40;;;13.82;;
14203;SDS011;7185;51.854;6.622;2022-11-20T04:57:18;30.20;;;12.85;;
14203;SDS011;7185;51.854;6.622;2022-11-20T04:59:49;28.27;;;12.95;;
14203;SDS011;7185;51.854;6.622;2022-11-20T05:02:21;22.45;;;12.00;;
14203;SDS011;7185;51.854;6.622;2022-11-20T05:04:52;27.00;;;12.45;;
14203;SDS011;7185;51.854;6.622;2022-11-20T05:07:23;26.67;;;12.88;;
14203;SDS011;7185;51.854;6.622;2022-11-20T05:09:55;27.70;;;13.10;;
14203;SDS011;7185;51.854;6.622;2022-11-20T05:12:27;25.25;;;12.57;;
14203;SDS011;7185;51.854;6.622;2022-11-20T05:14:59;28.10;;;13.75;;
14203;SDS011;7185;51.854;6.622;2022-11-20T05:17:30;27.75;;;12.13;;
14203;SDS011;7185;51.854;6.622;2022-11-20T05:20:01;25.92;;;11.77;;
14203;SDS011;7185;51.854;6.622;2022-11-20T05:22:33;26.63;;;13.27;;
14203;SDS011;7185;51.854;6.622;2022-11-20T05:25:04;26.42;;;12.55;;
14203;SDS011;7185;51.854;6.622;2022-11-20T05:27:37;26.70;;;12.93;;
14203;SDS011;7185;51.854;6.622;2022-11-20T05:30:09;28.73;;;12.90;;
14203;SDS011;7185;51.854;6.622;2022-11-20T05:32:41;23.13;;;12.38;;
14203;SDS011;7185;51.854;6.622;2022-11-20T05:35:12;27.90;;;13.65;;
14203;SDS011;7185;51.854;6.622;2022-11-20T05:37:43;26.05;;;13.73;;
14203;SDS011;7185;51.854;6.622;2022-11-20T05:40:15;25.90;;;13.07;;
14203;SDS011;7185;51.854;6.622;2022-11-20T05:42:48;25.05;;;12.40;;
14203;SDS011;7185;51.854;6.622;2022-11-20T05:45:19;26.98;;;12.98;;
14203;SDS011;7185;51.854;6.622;2022-11-20T05:47:50;27.15;;;12.75;;
14203;SDS011;7185;51.854;6.622;2022-11-20T05:50:22;27.40;;;12.68;;
14203;SDS011;7185;51.854;6.622;2022-11-20T05:52:53;25.25;;;12.27;;
14203;SDS011;7185;51.854;6.622;2022-11-20T05:55:24;28.08;;;13.18;;
14203;SDS011;7185;51.854;6.622;2022-11-20T05:57:57;25.15;;;12.45;;
14203;SDS011;7185;51.854;6.622;2022-11-20T06:00:28;30.73;;;13.73;;
14203;SDS011;7185;51.854;6.622;2022-11-20T06:03:00;24.05;;;12.05;;
14203;SDS011;7185;51.854;6.622;2022-11-20T06:05:33;25.98;;;12.20;;
14203;SDS011;7185;51.854;6.622;2022-11-20T06:08:04;27.75;;;14.35;;
14203;SDS011;7185;51.854;6.622;2022-11-20T06:10:35;25.20;;;13.13;;
14203;SDS011;7185;51.854;6.622;2022-11-20T06:13:08;27.08;;;13.10;;
14203;SDS011;7185;51.854;6.622;2022-11-20T06:15:39;27.45;;;13.00;;
14203;SDS011;7185;51.854;6.622;2022-11-20T06:18:11;27.55;;;13.10;;
14203;SDS011;7185;51.854;6.622;2022-11-20T06:20:42;28.45;;;12.30;;
14203;SDS011;7185;51.854;6.622;2022-11-20T06:23:13;25.95;;;12.63;;
14203;SDS011;7185;51.854;6.622;2022-11-20T06:25:45;27.45;;;13.25;;
14203;SDS011;7185;51.854;6.622;2022-11-20T06:28:17;24.35;;;12.05;;
14203;SDS011;7185;51.854;6.622;2022-11-20T06:30:49;22.20;;;11.73;;
14203;SDS011;7185;51.854;6.622;2022-11-20T06:33:20;26.45;;;12.57;;
14203;SDS011;7185;51.854;6.622;2022-11-20T06:35:51;27.23;;;12.00;;
14203;SDS011;7185;51.854;6.622;2022-11-20T06:38:23;30.38;;;12.40;;
14203;SDS011;7185;51.854;6.622;2022-11-20T06:40:54;27.05;;;12.60;;
14203;SDS011;7185;51.854;6.622;2022-11-20T06:43:28;26.42;;;12.05;;
14203;SDS011;7185;51.854;6.622;2022-11-20T06:45:59;24.58;;;12.80;;
14203;SDS011;7185;51.854;6.622;2022-11-20T06:48:31;29.15;;;12.57;;
14203;SDS011;7185;51.854;6.622;2022-11-20T06:51:02;28.52;;;13.07;;
14203;SDS011;7185;51.854;6.622;2022-11-20T06:53:34;26.92;;;13.25;;
14203;SDS011;7185;51.854;6.622;2022-11-20T06:56:06;27.45;;;13.20;;
14203;SDS011;7185;51.854;6.622;2022-11-20T06:58:39;25.52;;;13.40;;
14203;SDS011;7185;51.854;6.622;2022-11-20T07:01:11;26.58;;;12.60;;
14203;SDS011;7185;51.854;6.622;2022-11-20T07:03:42;31.02;;;14.48;;
14203;SDS011;7185;51.854;6.622;2022-11-20T07:06:14;31.00;;;13.95;;
14203;SDS011;7185;51.854;6.622;2022-11-20T07:08:45;25.48;;;12.65;;
14203;SDS011;7185;51.854;6.622;2022-11-20T07:11:17;31.42;;;15.55;;
14203;SDS011;7185;51.854;6.622;2022-11-20T07:13:50;29.58;;;14.10;;
14203;SDS011;7185;51.854;6.622;2022-11-20T07:16:21;28.63;;;14.15;;
14203;SDS011;7185;51.854;6.622;2022-11-20T07:18:52;31.55;;;15.05;;
14203;SDS011;7185;51.854;6.622;2022-11-20T07:21:24;32.08;;;13.82;;
14203;SDS011;7185;51.854;6.622;2022-11-20T07:23:55;31.00;;;14.93;;
14203;SDS011;7185;51.854;6.622;2022-11-20T07:26:27;26.17;;;13.07;;
14203;SDS011;7185;51.854;6.622;2022-11-20T07:28:59;32.85;;;14.35;;
14203;SDS011;7185;51.854;6.622;2022-11-20T07:31:31;35.08;;;16.02;;
14203;SDS011;7185;51.854;6.622;2022-11-20T07:34:02;32.25;;;14.43;;
14203;SDS011;7185;51.854;6.622;2022-11-20T07:36:33;30.33;;;15.98;;
14203;SDS011;7185;51.854;6.622;2022-11-20T07:39:05;32.83;;;16.35;;
14203;SDS011;7185;51.854;6.622;2022-11-20T07:41:36;32.00;;;15.05;;
14203;SDS011;7185;51.854;6.622;2022-11-20T07:44:09;30.13;;;15.25;;
14203;SDS011;7185;51.854;6.622;2022-11-20T07:46:40;36.38;;;16.13;;
14203;SDS011;7185;51.854;6.622;2022-11-20T07:49:11;32.38;;;16.00;;
14203;SDS011;7185;51.854;6.622;2022-11-20T07:51:43;32.42;;;15.98;;
14203;SDS011;7185;51.854;6.622;2022-11-20T07:54:14;30.90;;;16.35;;
14203;SDS011;7185;51.854;6.622;2022-11-20T07:56:46;31.63;;;16.85;;
14203;SDS011;7185;51.854;6.622;2022-11-20T07:59:19;27.40;;;13.55;;
14203;SDS011;7185;51.854;6.622;2022-11-20T08:01:50;32.75;;;16.90;;
14203;SDS011;7185;51.854;6.622;2022-11-20T08:04:21;31.08;;;15.85;;
14203;SDS011;7185;51.854;6.622;2022-11-20T08:06:53;34.17;;;16.75;;
14203;SDS011;7185;51.854;6.622;2022-11-20T08:09:24;31.77;;;16.13;;
14203;SDS011;7185;51.854;6.622;2022-11-20T08:11:56;27.67;;;13.88;;
14203;SDS011;7185;51.854;6.622;2022-11-20T08:14:46;25.10;;;13.23;;
14203;SDS011;7185;51.854;6.622;2022-11-20T08:17:17;27.58;;;13.65;;
14203;SDS011;7185;51.854;6.622;2022-11-20T08:19:49;30.35;;;13.27;;
14203;SDS011;7185;51.854;6.622;2022-11-20T08:22:20;26.45;;;14.88;;
14203;SDS011;7185;51.854;6.622;2022-11-20T08:24:52;24.70;;;13.05;;
14203;SDS011;7185;51.854;6.622;2022-11-20T08:27:23;22.63;;;13.05;;
14203;SDS011;7185;51.854;6.622;2022-11-20T08:29:56;25.92;;;13.02;;
14203;SDS011;7185;51.854;6.622;2022-11-20T08:32:27;23.60;;;12.43;;
14203;SDS011;7185;51.854;6.622;2022-11-20T08:34:58;21.77;;;12.25;;
14203;SDS011;7185;51.854;6.622;2022-11-20T08:40:06;24.15;;;13.07;;
14203;SDS011;7185;51.854;6.622;2022-11-20T08:42:37;20.38;;;12.57;;
14203;SDS011;7185;51.854;6.622;2022-11-20T08:45:18;26.13;;;13.65;;
14203;SDS011;7185;51.854;6.622;2022-11-20T08:47:50;23.63;;;13.10;;
14203;SDS011;7185;51.854;6.622;2022-11-20T08:50:21;25.55;;;13.52;;
14203;SDS011;7185;51.854;6.622;2022-11-20T08:52:52;22.98;;;12.82;;
14203;SDS011;7185;51.854;6.622;2022-11-20T08:55:24;26.83;;;15.82;;
14203;SDS011;7185;51.854;6.622;2022-11-20T08:57:55;25.35;;;14.80;;
14203;SDS011;7185;51.854;6.622;2022-11-20T09:00:28;26.80;;;15.73;;
14203;SDS011;7185;51.854;6.622;2022-11-20T09:02:59;25.60;;;14.73;;
14203;SDS011;7185;51.854;6.622;2022-11-20T09:05:31;29.40;;;16.58;;
14203;SDS011;7185;51.854;6.622;2022-11-20T09:08:02;27.05;;;14.80;;
14203;SDS011;7185;51.854;6.622;2022-11-20T09:10:33;26.88;;;14.07;;
14203;SDS011;7185;51.854;6.622;2022-11-20T09:13:06;22.90;;;14.77;;
14203;SDS011;7185;51.854;6.622;2022-11-20T09:15:39;24.83;;;15.38;;
14203;SDS011;7185;51.854;6.622;2022-11-20T09:18:10;28.58;;;16.17;;
14203;SDS011;7185;51.854;6.622;2022-11-20T09:20:42;27.17;;;16.17;;
14203;SDS011;7185;51.854;6.622;2022-11-20T09:23:13;26.67;;;15.70;;
14203;SDS011;7185;51.854;6.622;2022-11-20T09:25:44;28.13;;;16.05;;
14203;SDS011;7185;51.854;6.622;2022-11-20T09:28:16;28.88;;;16.60;;
14203;SDS011;7185;51.854;6.622;2022-11-20T09:30:49;30.67;;;17.42;;
14203;SDS011;7185;51.854;6.622;2022-11-20T09:33:21;28.40;;;16.80;;
14203;SDS011;7185;51.854;6.622;2022-11-20T09:35:52;28.60;;;16.83;;
14203;SDS011;7185;51.854;6.622;2022-11-20T09:38:23;24.65;;;15.40;;
14203;SDS011;7185;51.854;6.622;2022-11-20T09:40:56;28.33;;;15.57;;
14203;SDS011;7185;51.854;6.622;2022-11-20T09:43:30;25.35;;;16.13;;
14203;SDS011;7185;51.854;6.622;2022-11-20T09:46:07;26.83;;;15.30;;
14203;SDS011;7185;51.854;6.622;2022-11-20T09:48:47;30.73;;;15.70;;
14203;SDS011;7185;51.854;6.622;2022-11-20T09:51:21;28.42;;;15.40;;
14203;SDS011;7185;51.854;6.622;2022-11-20T09:53:58;23.50;;;14.18;;
14203;SDS011;7185;51.854;6.622;2022-11-20T09:56:31;29.23;;;16.20;;
14203;SDS011;7185;51.854;6.622;2022-11-20T09:59:04;25.45;;;16.02;;
14203;SDS011;7185;51.854;6.622;2022-11-20T10:01:39;24.13;;;15.27;;
14203;SDS011;7185;51.854;6.622;2022-11-20T10:04:13;26.90;;;16.02;;
14203;SDS011;7185;51.854;6.622;2022-11-20T10:06:47;25.48;;;17.25;;
14203;SDS011;7185;51.854;6.622;2022-11-20T10:09:23;27.42;;;17.02;;
14203;SDS011;7185;51.854;6.622;2022-11-20T10:11:59;26.10;;;17.77;;
14203;SDS011;7185;51.854;6.622;2022-11-20T10:14:36;29.70;;;17.80;;
14203;SDS011;7185;51.854;6.622;2022-11-20T10:17:13;31.27;;;18.55;;
14203;SDS011;7185;51.854;6.622;2022-11-20T10:19:51;29.10;;;18.77;;
14203;SDS011;7185;51.854;6.622;2022-11-20T10:22:28;29.35;;;16.75;;
14203;SDS011;7185;51.854;6.622;2022-11-20T10:25:03;30.48;;;17.33;;
14203;SDS011;7185;51.854;6.622;2022-11-20T10:27:44;30.02;;;16.60;;
14203;SDS011;7185;51.854;6.622;2022-11-20T10:30:20;34.72;;;17.85;;
14203;SDS011;7185;51.854;6.622;2022-11-20T10:32:57;38.58;;;18.90;;
14203;SDS011;7185;51.854;6.622;2022-11-20T10:35:33;34.78;;;19.05;;
14203;SDS011;7185;51.854;6.622;2022-11-20T10:38:08;39.72;;;20.23;;
14203;SDS011;7185;51.854;6.622;2022-11-20T10:40:41;31.63;;;17.23;;
14203;SDS011;7185;51.854;6.622;2022-11-20T10:43:13;32.75;;;16.92;;
14203;SDS011;7185;51.854;6.622;2022-11-20T10:45:50;35.88;;;18.65;;
14203;SDS011;7185;51.854;6.622;2022-11-20T10:48:25;30.05;;;15.90;;
14203;SDS011;7185;51.854;6.622;2022-11-20T10:51:07;38.25;;;16.42;;
14203;SDS011;7185;51.854;6.622;2022-11-20T10:53:56;33.33;;;17.27;;
14203;SDS011;7185;51.854;6.622;2022-11-20T10:56:31;34.10;;;16.20;;
14203;SDS011;7185;51.854;6.622;2022-11-20T11:01:57;33.58;;;16.58;;
14203;SDS011;7185;51.854;6.622;2022-11-20T11:04:32;32.60;;;17.02;;
14203;SDS011;7185;51.854;6.622;2022-11-20T11:07:06;35.08;;;16.80;;
14203;SDS011;7185;51.854;6.622;2022-11-20T11:09:39;34.83;;;15.80;;
14203;SDS011;7185;51.854;6.622;2022-11-20T11:12:12;30.60;;;14.63;;
14203;SDS011;7185;51.854;6.622;2022-11-20T11:14:45;30.10;;;15.35;;
14203;SDS011;7185;51.854;6.622;2022-11-20T11:17:18;35.25;;;16.45;;
14203;SDS011;7185;51.854;6.622;2022-11-20T11:20:02;30.20;;;16.58;;
14203;SDS011;7185;51.854;6.622;2022-11-20T11:22:39;32.10;;;16.70;;
14203;SDS011;7185;51.854;6.622;2022-11-20T11:25:22;31.50;;;17.00;;
14203;SDS011;7185;51.854;6.622;2022-11-20T11:27:54;35.55;;;17.30;;
14203;SDS011;7185;51.854;6.622;2022-11-20T11:30:27;30.13;;;15.43;;
14203;SDS011;7185;51.854;6.622;2022-11-20T11:33:04;31.55;;;16.95;;
14203;SDS011;7185;51.854;6.622;2022-11-20T11:35:43;32.20;;;17.50;;
14203;SDS011;7185;51.854;6.622;2022-11-20T11:38:16;31.08;;;16.08;;
14203;SDS011;7185;51.854;6.622;2022-11-20T11:40:48;29.83;;;16.17;;
14203;SDS011;7185;51.854;6.622;2022-11-20T11:43:20;27.52;;;16.08;;
14203;SDS011;7185;51.854;6.622;2022-11-20T11:46:22;25.65;;;14.30;;
14203;SDS011;7185;51.854;6.622;2022-11-20T11:48:59;25.20;;;15.45;;
14203;SDS011;7185;51.854;6.622;2022-11-20T11:51:34;25.42;;;14.57;;
14203;SDS011;7185;51.854;6.622;2022-11-20T11:56:42;30.35;;;15.80;;
14203;SDS011;7185;51.854;6.622;2022-11-20T11:59:15;29.48;;;16.25;;
14203;SDS011;7185;51.854;6.622;2022-11-20T12:02:01;26.38;;;14.55;;
14203;SDS011;7185;51.854;6.622;2022-11-20T12:04:41;30.48;;;15.70;;
14203;SDS011;7185;51.854;6.622;2022-11-20T12:07:15;30.90;;;16.27;;
14203;SDS011;7185;51.854;6.622;2022-11-20T12:09:51;32.08;;;16.88;;
14203;SDS011;7185;51.854;6.622;2022-11-20T12:12:33;31.15;;;15.18;;
14203;SDS011;7185;51.854;6.622;2022-11-20T12:15:08;31.65;;;15.90;;
14203;SDS011;7185;51.854;6.622;2022-11-20T12:17:44;31.38;;;16.83;;
14203;SDS011;7185;51.854;6.622;2022-11-20T12:20:41;33.05;;;15.45;;
14203;SDS011;7185;51.854;6.622;2022-11-20T12:23:21;29.17;;;15.68;;
14203;SDS011;7185;51.854;6.622;2022-11-20T12:26:00;30.88;;;15.52;;
14203;SDS011;7185;51.854;6.622;2022-11-20T12:28:44;32.75;;;15.32;;
14203;SDS011;7185;51.854;6.622;2022-11-20T12:34:34;30.30;;;14.95;;
14203;SDS011;7185;51.854;6.622;2022-11-20T12:37:10;30.83;;;15.57;;
14203;SDS011;7185;51.854;6.622;2022-11-20T12:39:47;30.65;;;16.02;;
14203;SDS011;7185;51.854;6.622;2022-11-20T12:42:30;29.65;;;15.20;;
14203;SDS011;7185;51.854;6.622;2022-11-20T12:48:41;31.38;;;16.60;;
14203;SDS011;7185;51.854;6.622;2022-11-20T12:51:30;35.10;;;17.85;;
14203;SDS011;7185;51.854;6.622;2022-11-20T12:54:11;33.50;;;17.42;;
14203;SDS011;7185;51.854;6.622;2022-11-20T12:59:42;36.03;;;17.92;;
14203;SDS011;7185;51.854;6.622;2022-11-20T13:05:19;33.28;;;16.75;;
14203;SDS011;7185;51.854;6.622;2022-11-20T13:07:54;36.28;;;17.38;;
14203;SDS011;7185;51.854;6.622;2022-11-20T13:10:29;32.80;;;16.35;;
14203;SDS011;7185;51.854;6.622;2022-11-20T13:13:03;33.75;;;15.68;;
14203;SDS011;7185;51.854;6.622;2022-11-20T13:15:48;31.10;;;15.98;;
14203;SDS011;7185;51.854;6.622;2022-11-20T13:18:23;32.88;;;14.98;;
14203;SDS011;7185;51.854;6.622;2022-11-20T13:20:55;33.90;;;16.65;;
14203;SDS011;7185;51.854;6.622;2022-11-20T13:23:27;33.10;;;15.13;;
14203;SDS011;7185;51.854;6.622;2022-11-20T13:26:02;33.50;;;16.52;;
14203;SDS011;7185;51.854;6.622;2022-11-20T13:28:34;30.73;;;15.18;;
14203;SDS011;7185;51.854;6.622;2022-11-20T13:33:54;30.42;;;15.77;;
14203;SDS011;7185;51.854;6.622;2022-11-20T13:36:27;32.70;;;15.43;;
14203;SDS011;7185;51.854;6.622;2022-11-20T13:39:05;29.38;;;15.45;;
14203;SDS011;7185;51.854;6.622;2022-11-20T13:41:39;32.47;;;16.33;;
14203;SDS011;7185;51.854;6.622;2022-11-20T13:44:13;34.22;;;17.35;;
14203;SDS011;7185;51.854;6.622;2022-11-20T13:46:58;31.65;;;16.25;;
14203;SDS011;7185;51.854;6.622;2022-11-20T13:49:34;33.75;;;16.48;;
14203;SDS011;7185;51.854;6.622;2022-11-20T13:52:22;36.47;;;18.20;;
14203;SDS011;7185;51.854;6.622;2022-11-20T13:55:01;37.13;;;17.45;;
14203;SDS011;7185;51.854;6.622;2022-11-20T14:00:20;37.10;;;17.25;;
14203;SDS011;7185;51.854;6.622;2022-11-20T14:02:57;36.67;;;18.65;;
14203;SDS011;7185;51.854;6.622;2022-11-20T14:05:31;35.00;;;18.45;;
14203;SDS011;7185;51.854;6.622;2022-11-20T14:08:05;35.95;;;18.80;;
14203;SDS011;7185;51.854;6.622;2022-11-20T14:10:38;37.83;;;18.67;;
14203;SDS011;7185;51.854;6.622;2022-11-20T14:13:10;39.25;;;18.23;;
14203;SDS011;7185;51.854;6.622;2022-11-20T14:15:41;35.03;;;16.80;;
14203;SDS011;7185;51.854;6.622;2022-11-20T14:18:14;37.53;;;18.65;;
14203;SDS011;7185;51.854;6.622;2022-11-20T14:20:47;37.65;;;18.15;;
14203;SDS011;7185;51.854;6.622;2022-11-20T14:23:23;37.42;;;18.58;;
14203;SDS011;7185;51.854;6.622;2022-11-20T14:25:54;39.53;;;18.83;;
14203;SDS011;7185;51.854;6.622;2022-11-20T14:28:26;43.33;;;20.00;;
14203;SDS011;7185;51.854;6.622;2022-11-20T14:30:58;40.72;;;19.17;;
14203;SDS011;7185;51.854;6.622;2022-11-20T14:33:37;39.20;;;19.13;;
14203;SDS011;7185;51.854;6.622;2022-11-20T14:36:16;40.80;;;19.45;;
14203;SDS011;7185;51.854;6.622;2022-11-20T14:38:48;42.33;;;20.80;;
14203;SDS011;7185;51.854;6.622;2022-11-20T14:41:22;43.28;;;20.23;;
14203;SDS011;7185;51.854;6.622;2022-11-20T14:44:05;45.17;;;20.95;;
14203;SDS011;7185;51.854;6.622;2022-11-20T14:46:37;40.22;;;20.25;;
14203;SDS011;7185;51.854;6.622;2022-11-20T14:49:08;46.15;;;20.92;;
14203;SDS011;7185;51.854;6.622;2022-11-20T14:51:42;49.30;;;21.45;;
14203;SDS011;7185;51.854;6.622;2022-11-20T14:54:16;44.15;;;20.30;;
14203;SDS011;7185;51.854;6.622;2022-11-20T14:56:53;43.72;;;20.85;;
14203;SDS011;7185;51.854;6.622;2022-11-20T14:59:25;42.28;;;19.90;;
14203;SDS011;7185;51.854;6.622;2022-11-20T15:01:56;44.10;;;20.60;;
14203;SDS011;7185;51.854;6.622;2022-11-20T15:04:29;46.38;;;22.33;;
14203;SDS011;7185;51.854;6.622;2022-11-20T15:07:01;48.15;;;21.58;;
14203;SDS011;7185;51.854;6.622;2022-11-20T15:09:33;45.70;;;21.83;;
14203;SDS011;7185;51.854;6.622;2022-11-20T15:12:04;43.03;;;21.08;;
14203;SDS011;7185;51.854;6.622;2022-11-20T15:14:36;50.83;;;22.10;;
14203;SDS011;7185;51.854;6.622;2022-11-20T15:17:08;45.10;;;20.75;;
14203;SDS011;7185;51.854;6.622;2022-11-20T15:22:43;45.25;;;21.60;;
14203;SDS011;7185;51.854;6.622;2022-11-20T15:25:15;45.88;;;19.77;;
14203;SDS011;7185;51.854;6.622;2022-11-20T15:27:48;45.13;;;20.80;;
14203;SDS011;7185;51.854;6.622;2022-11-20T15:30:21;46.17;;;20.63;;
14203;SDS011;7185;51.854;6.622;2022-11-20T15:32:53;41.95;;;19.50;;
14203;SDS011;7185;51.854;6.622;2022-11-20T15:35:24;46.95;;;21.27;;
14203;SDS011;7185;51.854;6.622;2022-11-20T15:37:59;44.70;;;20.23;;
14203;SDS011;7185;51.854;6.622;2022-11-20T15:40:31;49.72;;;20.27;;
14203;SDS011;7185;51.854;6.622;2022-11-20T15:43:02;47.20;;;20.20;;
14203;SDS011;7185;51.854;6.622;2022-11-20T15:45:36;47.55;;;20.35;;
14203;SDS011;7185;51.854;6.622;2022-11-20T15:48:09;45.58;;;20.08;;
14203;SDS011;7185;51.854;6.622;2022-11-20T15:50:44;48.15;;;19.20;;